Time;durP1;ratioP1;P1;durP2;ratioP2;P2;SDS_P1;SDS_P2;PMS_P1;PMS_P2;Temp;Humidity;BMP_temperature;BMP_pressure;BME280_temperature;BME280_humidity;BME280_pressure;Samples;Min_cycle;Max_cycle;Signal;HPM_P1;HPM_P2
2023/09/02 00:00:56;;;;;;;;;;;;;;;22.41;52.89;101008.25;2153565;82;50246;-75
2023/09/02 00:03:57;;;;;;;;;;;;;;;22.40;52.78;101006.04;2153300;82;50511;-77
2023/09/02 00:06:59;;;;;;;;;;;;;;;22.41;52.79;101010.94;2156228;81;52498;-75
2023/09/02 00:10:01;;;;;;;;;;;;;;;22.41;52.81;101014.46;2153625;81;50300;-75
2023/09/02 00:13:03;;;;;;;;;;;;;;;22.41;52.78;101014.98;2176078;80;50708;-75
2023/09/02 00:16:05;;;;;;;;;;;;;;;22.43;52.70;101012.90;2150723;81;51544;-75
2023/09/02 00:19:06;;;;;;;;;;;;;;;22.41;52.77;101006.89;2131277;82;52510;-74
2023/09/02 00:22:08;;;;;;;;;;;;;;;22.41;52.74;101013.12;2156957;82;50701;-75
2023/09/02 00:25:09;;;;;;;;;;;;;;;22.40;52.79;101018.17;2151968;81;50646;-75
2023/09/02 00:28:11;;;;;;;;;;;;;;;22.41;52.75;101015.81;2153451;81;51536;-75
2023/09/02 00:31:13;;;;;;;;;;;;;;;22.42;52.70;101017.98;2134306;82;51802;-74
2023/09/02 00:34:15;;;;;;;;;;;;;;;22.41;52.75;101013.64;2156790;82;50668;-74
2023/09/02 00:37:16;;;;;;;;;;;;;;;22.40;52.78;101015.48;2152714;81;50256;-75
2023/09/02 00:40:18;;;;;;;;;;;;;;;22.39;52.94;101013.83;2153645;82;50689;-75
2023/09/02 00:43:20;;;;;;;;;;;;;;;22.37;52.92;101014.53;2153305;81;50356;-74
2023/09/02 00:46:22;;;;;;;;;;;;;;;22.38;52.92;101010.30;2153208;82;50294;-75
2023/09/02 00:49:24;;;;;;;;;;;;;;;22.39;52.89;101018.70;2157179;81;51428;-73
2023/09/02 00:52:26;;;;;;;;;;;;;;;22.39;52.97;101014.66;2153438;82;51620;-74
2023/09/02 00:55:27;;;;;;;;;;;;;;;22.39;52.91;101008.44;2134450;81;52360;-76
2023/09/02 00:58:29;;;;;;;;;;;;;;;22.39;52.97;101017.34;2153603;81;51476;-75
2023/09/02 01:01:32;;;;;;;;;;;;;;;22.38;52.91;101012.17;2153575;82;50243;-75
2023/09/02 01:04:34;;;;;;;;;;;;;;;22.37;53.01;101019.41;2152476;82;51534;-75
2023/09/02 01:07:35;;;;;;;;;;;;;;;22.37;52.95;101016.70;2147791;82;51392;-75
2023/09/02 01:10:37;;;;;;;;;;;;;;;22.37;52.96;101012.66;2153595;82;51529;-75
2023/09/02 01:13:39;;;;;;;;;;;;;;;22.37;53.03;101015.88;2153298;81;50460;-75
2023/09/02 01:16:40;;;;;;;;;;;;;;;22.38;52.93;101015.70;2156965;82;50082;-75
2023/09/02 01:19:42;;;;;;;;;;;;;;;22.37;52.92;101018.05;2134564;82;51485;-75
2023/09/02 01:22:59;;;;;;;;;;;;;;;22.37;52.95;101019.41;2153275;82;51612;-75
2023/09/02 01:26:05;;;;;;;;;;;;;;;22.36;53.04;101017.75;2153500;81;51610;-75
2023/09/02 01:29:07;;;;;;;;;;;;;;;22.37;52.95;101024.80;2153649;81;50323;-76
2023/09/02 01:32:09;;;;;;;;;;;;;;;22.37;53.02;101029.36;2153596;82;51546;-76
2023/09/02 01:35:12;;;;;;;;;;;;;;;22.37;52.99;101031.53;2152588;81;51607;-76
2023/09/02 01:38:14;;;;;;;;;;;;;;;22.36;52.94;101029.88;2152481;82;50711;-75
2023/09/02 01:41:15;;;;;;;;;;;;;;;22.36;52.97;101033.92;2153557;82;50661;-75
2023/09/02 01:44:17;;;;;;;;;;;;;;;22.36;53.02;101039.32;2153163;82;51462;-75
2023/09/02 01:47:18;;;;;;;;;;;;;;;22.37;53.02;101040.97;2148800;82;51534;-75
2023/09/02 01:50:21;;;;;;;;;;;;;;;22.36;53.08;101042.54;2151628;81;51484;-76
2023/09/02 01:53:23;;;;;;;;;;;;;;;22.35;53.02;101041.71;2151619;82;50771;-75
2023/09/02 01:56:25;;;;;;;;;;;;;;;22.35;53.09;101045.75;2121989;83;51213;-75
2023/09/02 01:59:26;;;;;;;;;;;;;;;22.35;53.06;101044.90;2142100;82;50258;-75
2023/09/02 02:02:28;;;;;;;;;;;;;;;22.35;53.02;101051.15;2153324;81;50641;-76
2023/09/02 02:05:42;;;;;;;;;;;;;;;22.36;53.09;101049.28;2153494;82;51470;-76
2023/09/02 02:08:55;;;;;;;;;;;;;;;22.36;53.10;101054.67;2134422;82;52465;-76
2023/09/02 02:11:57;;;;;;;;;;;;;;;22.36;53.07;101060.89;2153653;81;50402;-75
2023/09/02 02:14:58;;;;;;;;;;;;;;;22.37;52.97;101065.23;2153216;81;50646;-76
2023/09/02 02:18:00;;;;;;;;;;;;;;;22.35;53.10;101061.94;2154445;82;50244;-74
2023/09/02 02:21:03;;;;;;;;;;;;;;;22.36;53.05;101068.98;2142866;82;50727;-75
2023/09/02 02:24:05;;;;;;;;;;;;;;;22.34;53.12;101079.12;2152356;82;50772;-74
2023/09/02 02:27:06;;;;;;;;;;;;;;;22.35;53.07;101079.95;2157118;82;49858;-74
2023/09/02 02:30:08;;;;;;;;;;;;;;;22.35;53.08;101078.11;2133211;81;51693;-75
2023/09/02 02:33:10;;;;;;;;;;;;;;;22.33;53.16;101074.77;2132114;82;49616;-74
2023/09/02 02:36:11;;;;;;;;;;;;;;;22.35;53.03;101074.06;2153078;81;50379;-74
2023/09/02 02:39:13;;;;;;;;;;;;;;;22.35;53.05;101083.99;2153583;81;50676;-75
2023/09/02 02:42:15;;;;;;;;;;;;;;;22.34;53.02;101080.47;2157133;81;50803;-75
2023/09/02 02:45:16;;;;;;;;;;;;;;;22.35;53.06;101079.95;2125271;82;51230;-75
2023/09/02 02:48:18;;;;;;;;;;;;;;;22.34;53.11;101076.42;2152092;81;50423;-74
2023/09/02 02:51:19;;;;;;;;;;;;;;;22.35;52.99;101081.30;2155265;82;50386;-74
2023/09/02 02:54:21;;;;;;;;;;;;;;;22.35;52.95;101086.20;2155079;82;50492;-74
2023/09/02 02:57:23;;;;;;;;;;;;;;;22.33;53.06;101085.55;2157236;81;50716;-75
2023/09/02 03:00:24;;;;;;;;;;;;;;;22.34;52.93;101088.56;2134258;82;52501;-75
2023/09/02 03:03:26;;;;;;;;;;;;;;;22.34;53.01;101093.12;2156972;81;50409;-75
2023/09/02 03:06:27;;;;;;;;;;;;;;;22.34;52.94;101092.60;2153579;82;51498;-75
2023/09/02 03:09:29;;;;;;;;;;;;;;;22.34;52.89;101090.42;2157208;81;52306;-74
2023/09/02 03:12:31;;;;;;;;;;;;;;;22.33;52.92;101093.64;2134276;82;52550;-75
2023/09/02 03:15:32;;;;;;;;;;;;;;;22.32;53.02;101094.66;2152913;81;51472;-75
2023/09/02 03:18:34;;;;;;;;;;;;;;;22.33;52.85;101090.13;2165052;81;51579;-75
2023/09/02 03:21:35;;;;;;;;;;;;;;;22.34;52.94;101095.30;2151669;82;50317;-75
2023/09/02 03:24:37;;;;;;;;;;;;;;;22.32;52.94;101097.35;2154896;82;50278;-76
2023/09/02 03:27:39;;;;;;;;;;;;;;;22.33;52.91;101098.21;2153418;81;50719;-75
2023/09/02 03:30:40;;;;;;;;;;;;;;;22.32;52.88;101097.35;2153480;81;50336;-76
2023/09/02 03:33:42;;;;;;;;;;;;;;;22.32;52.92;101098.70;2156936;82;50269;-75
2023/09/02 03:36:43;;;;;;;;;;;;;;;22.32;52.94;101100.05;2128255;82;51695;-75
2023/09/02 03:39:45;;;;;;;;;;;;;;;22.31;52.98;101102.44;2157445;81;51590;-75
2023/09/02 03:42:47;;;;;;;;;;;;;;;22.31;52.96;101102.95;2153297;82;50626;-75
2023/09/02 03:45:48;;;;;;;;;;;;;;;22.31;52.86;101101.09;2156638;81;51478;-74
2023/09/02 03:48:50;;;;;;;;;;;;;;;22.32;52.95;101110.00;2132437;82;53059;-75
2023/09/02 03:51:51;;;;;;;;;;;;;;;22.31;52.96;101115.91;2155007;82;51435;-74
2023/09/02 03:54:53;;;;;;;;;;;;;;;22.30;52.98;101118.31;2152083;82;51408;-75
2023/09/02 03:57:55;;;;;;;;;;;;;;;22.30;53.01;101118.31;2157046;81;52133;-75
2023/09/02 04:00:57;;;;;;;;;;;;;;;22.29;53.05;101117.97;2134354;82;51172;-75
2023/09/02 04:03:59;;;;;;;;;;;;;;;22.32;52.97;101114.05;2156944;82;51427;-75
2023/09/02 04:07:00;;;;;;;;;;;;;;;22.30;53.02;101125.05;2157071;82;50319;-75
2023/09/02 04:10:02;;;;;;;;;;;;;;;22.30;52.99;101118.31;2157286;81;50723;-74
2023/09/02 04:13:04;;;;;;;;;;;;;;;22.30;52.99;101114.75;2134341;82;51207;-75
2023/09/02 04:16:08;;;;;;;;;;;;;;;22.29;52.97;101119.84;2156627;81;50239;-75
2023/09/02 04:19:08;;;;;;;;;;;;;;;22.31;52.82;101118.61;2155913;82;22378;-74
2023/09/02 04:22:10;;;;;;;;;;;;;;;22.31;52.91;101123.17;2155218;82;51338;-75
2023/09/02 04:25:14;;;;;;;;;;;;;;;22.30;52.89;101125.05;2154929;81;51190;-75
2023/09/02 04:28:15;;;;;;;;;;;;;;;22.31;52.83;101124.00;2157028;82;22476;-76
2023/09/02 04:31:17;;;;;;;;;;;;;;;22.30;52.99;101119.66;2153618;82;52184;-74
2023/09/02 04:34:19;;;;;;;;;;;;;;;22.31;52.81;101124.53;2157046;82;51575;-75
2023/09/02 04:37:21;;;;;;;;;;;;;;;22.30;52.91;101125.05;2132505;82;51253;-75
2023/09/02 04:40:22;;;;;;;;;;;;;;;22.31;52.92;101126.70;2134240;82;51074;-76
2023/09/02 04:43:24;;;;;;;;;;;;;;;22.30;52.95;101134.48;2158505;81;49940;-76
2023/09/02 04:46:26;;;;;;;;;;;;;;;22.29;52.97;101132.80;2153335;81;50746;-76
2023/09/02 04:49:27;;;;;;;;;;;;;;;22.31;52.84;101138.83;2151989;81;51429;-75
2023/09/02 04:52:29;;;;;;;;;;;;;;;22.30;53.11;101139.88;2151496;82;50279;-75
2023/09/02 04:55:30;;;;;;;;;;;;;;;22.29;53.66;101143.58;2143548;82;50831;-75
2023/09/02 04:58:33;;;;;;;;;;;;;;;22.33;53.84;101150.27;2130295;82;50062;-74
2023/09/02 05:01:34;;;;;;;;;;;;;;;22.31;54.33;101155.01;2152943;81;50273;-74
2023/09/02 05:04:36;;;;;;;;;;;;;;;22.31;54.44;101156.88;2155219;82;50336;-74
2023/09/02 05:07:37;;;;;;;;;;;;;;;22.32;54.05;101157.19;2157315;82;50226;-75
2023/09/02 05:10:39;;;;;;;;;;;;;;;22.32;54.09;101159.36;2153734;82;50635;-76
2023/09/02 05:13:40;;;;;;;;;;;;;;;22.32;54.09;101162.05;2130655;82;51536;-75
2023/09/02 05:16:42;;;;;;;;;;;;;;;22.30;54.27;101165.48;2129357;82;52274;-76
2023/09/02 05:19:44;;;;;;;;;;;;;;;22.30;54.47;101170.02;2149747;82;50736;-75
2023/09/02 05:22:45;;;;;;;;;;;;;;;22.31;54.40;101177.92;2153001;81;50529;-75
2023/09/02 05:25:47;;;;;;;;;;;;;;;22.31;54.45;101179.80;2147968;82;50742;-75
2023/09/02 05:28:49;;;;;;;;;;;;;;;22.38;54.18;101180.69;2131935;82;50017;-74
2023/09/02 05:31:50;;;;;;;;;;;;;;;22.41;54.37;101192.95;2155637;82;50609;-76
2023/09/02 05:34:52;;;;;;;;;;;;;;;22.45;54.20;101188.81;2153442;81;49955;-76
2023/09/02 05:37:53;;;;;;;;;;;;;;;22.48;54.27;101196.02;2134263;82;51076;-76
2023/09/02 05:40:55;;;;;;;;;;;;;;;22.52;54.25;101197.27;2153506;82;50476;-75
2023/09/02 05:43:56;;;;;;;;;;;;;;;22.56;54.30;101196.38;2153050;82;51538;-76
2023/09/02 05:46:58;;;;;;;;;;;;;;;22.59;54.19;101200.03;2134013;82;50881;-76
2023/09/02 05:50:00;;;;;;;;;;;;;;;22.64;54.08;101196.75;2157155;82;51912;-76
2023/09/02 05:53:02;;;;;;;;;;;;;;;22.64;54.02;101196.75;2123384;82;50344;-75
2023/09/02 05:56:04;;;;;;;;;;;;;;;22.68;53.83;101210.14;2112150;82;50114;-76
2023/09/02 05:59:05;;;;;;;;;;;;;;;22.73;53.74;101207.17;2146507;82;50076;-76
2023/09/02 06:02:07;;;;;;;;;;;;;;;22.78;53.69;101212.80;2138393;83;50381;-76
2023/09/02 06:05:08;;;;;;;;;;;;;;;22.81;53.83;101222.38;2140684;82;50753;-77
2023/09/02 06:08:10;;;;;;;;;;;;;;;22.83;53.88;101223.02;2147884;81;50316;-77
2023/09/02 06:11:11;;;;;;;;;;;;;;;22.86;53.94;101234.76;2157245;82;50112;-78
2023/09/02 06:14:13;;;;;;;;;;;;;;;22.89;53.92;101230.34;2153461;82;50687;-76
2023/09/02 06:17:15;;;;;;;;;;;;;;;22.91;53.87;101232.30;2156218;82;51384;-76
2023/09/02 06:20:20;;;;;;;;;;;;;;;22.92;53.96;101236.69;2154842;82;51701;-75
2023/09/02 06:23:19;;;;;;;;;;;;;;;22.93;54.05;101227.55;2153434;82;22754;-77
2023/09/02 06:26:22;;;;;;;;;;;;;;;22.95;54.08;101226.84;2153426;82;52261;-76
2023/09/02 06:29:24;;;;;;;;;;;;;;;22.95;54.17;101228.71;2157115;82;50653;-77
2023/09/02 06:32:25;;;;;;;;;;;;;;;23.02;54.13;101234.50;2152559;81;52028;-75
2023/09/02 06:35:29;;;;;;;;;;;;;;;23.00;54.25;101231.67;2153788;81;51420;-75
2023/09/02 06:38:31;;;;;;;;;;;;;;;23.04;54.34;101239.68;2134380;82;51908;-77
2023/09/02 06:41:32;;;;;;;;;;;;;;;23.09;54.32;101244.48;2153480;82;50689;-76
2023/09/02 06:44:34;;;;;;;;;;;;;;;23.16;54.20;101239.45;2153217;82;51570;-77
2023/09/02 06:47:36;;;;;;;;;;;;;;;23.18;54.11;101237.39;2152653;82;50751;-77
2023/09/02 06:50:37;;;;;;;;;;;;;;;23.22;53.98;101247.26;2152497;82;52524;-77
2023/09/02 06:53:39;;;;;;;;;;;;;;;23.26;53.80;101255.29;2134547;82;52005;-77
2023/09/02 06:56:41;;;;;;;;;;;;;;;23.28;53.72;101256.45;2154180;82;50677;-77
2023/09/02 06:59:42;;;;;;;;;;;;;;;23.29;53.64;101261.64;2154493;82;51468;-78
2023/09/02 07:02:44;;;;;;;;;;;;;;;23.31;53.52;101265.50;2134477;82;52500;-77
2023/09/02 07:05:45;;;;;;;;;;;;;;;23.28;53.57;101268.08;2157779;82;51437;-76
2023/09/02 07:08:47;;;;;;;;;;;;;;;23.24;53.61;101273.02;2154120;82;51491;-77
2023/09/02 07:11:49;;;;;;;;;;;;;;;23.23;53.55;101277.30;2154096;82;51487;-77
2023/09/02 07:14:50;;;;;;;;;;;;;;;23.20;53.56;101274.48;2128181;82;52447;-77
2023/09/02 07:17:52;;;;;;;;;;;;;;;23.20;53.57;101281.22;2110355;82;50101;-77
2023/09/02 07:20:55;;;;;;;;;;;;;;;23.24;53.52;101284.34;2154159;82;50608;-77
2023/09/02 07:23:57;;;;;;;;;;;;;;;23.23;53.53;101287.57;2153473;81;51678;-77
2023/09/02 07:26:58;;;;;;;;;;;;;;;23.24;53.46;101290.58;2134898;82;52316;-77
2023/09/02 07:30:00;;;;;;;;;;;;;;;23.24;53.42;101291.93;2157634;82;51604;-77
2023/09/02 07:33:02;;;;;;;;;;;;;;;23.26;53.36;101296.62;2153632;82;50739;-77
2023/09/02 07:36:07;;;;;;;;;;;;;;;23.28;53.31;101295.61;2157638;82;51434;-77
2023/09/02 07:39:09;;;;;;;;;;;;;;;23.29;53.24;101294.56;2134774;82;51802;-77
2023/09/02 07:42:10;;;;;;;;;;;;;;;23.31;53.18;101296.55;2134786;82;51159;-76
2023/09/02 07:45:13;;;;;;;;;;;;;;;23.29;53.15;101304.02;2146109;82;50726;-77
2023/09/02 07:48:14;;;;;;;;;;;;;;;23.31;53.07;101307.35;2159626;81;49987;-78
2023/09/02 07:51:17;;;;;;;;;;;;;;;23.30;53.06;101313.77;2138052;81;51231;-76
2023/09/02 07:54:18;;;;;;;;;;;;;;;23.31;52.97;101316.80;2100809;84;50696;-77
2023/09/02 07:57:20;;;;;;;;;;;;;;;23.31;52.94;101314.11;2100897;84;51405;-77
2023/09/02 08:00:22;;;;;;;;;;;;;;;23.31;52.91;101316.80;2112589;84;52190;-76
2023/09/02 08:03:23;;;;;;;;;;;;;;;23.29;52.87;101319.69;2107207;82;52383;-77
2023/09/02 08:06:25;;;;;;;;;;;;;;;23.26;52.86;101322.27;2157583;82;51658;-77
2023/09/02 08:09:26;;;;;;;;;;;;;;;23.24;52.87;101322.98;2153784;82;50337;-77
2023/09/02 08:12:28;;;;;;;;;;;;;;;23.24;52.89;101333.78;2157268;81;50430;-77
2023/09/02 08:15:29;;;;;;;;;;;;;;;23.23;52.84;101340.22;2129908;82;51018;-77
2023/09/02 08:18:33;;;;;;;;;;;;;;;23.19;52.94;101342.98;2155365;82;50747;-77
2023/09/02 08:21:34;;;;;;;;;;;;;;;23.18;52.94;101341.33;2155161;82;52601;-77
2023/09/02 08:24:36;;;;;;;;;;;;;;;23.20;52.96;101343.84;2155960;82;50677;-77
2023/09/02 08:27:38;;;;;;;;;;;;;;;23.19;52.94;101347.03;2157397;82;52299;-77
2023/09/02 08:30:40;;;;;;;;;;;;;;;23.19;52.95;101344.86;2153766;82;51431;-76
2023/09/02 08:33:42;;;;;;;;;;;;;;;23.17;52.94;101347.77;2153787;82;51564;-78
2023/09/02 08:36:43;;;;;;;;;;;;;;;23.18;52.89;101350.78;2153742;82;50330;-76
2023/09/02 08:39:46;;;;;;;;;;;;;;;23.19;52.83;101355.13;2134593;82;51249;-77
2023/09/02 08:42:48;;;;;;;;;;;;;;;23.20;52.76;101358.17;2157080;82;51575;-78
2023/09/02 08:45:50;;;;;;;;;;;;;;;23.18;52.76;101353.48;2153141;82;51511;-77
2023/09/02 08:48:52;;;;;;;;;;;;;;;23.16;52.78;101358.75;2152554;82;51283;-78
2023/09/02 08:51:53;;;;;;;;;;;;;;;23.16;52.80;101358.23;2155072;82;52475;-77
2023/09/02 08:54:55;;;;;;;;;;;;;;;23.15;52.80;101363.33;2151539;82;50673;-76
2023/09/02 08:57:57;;;;;;;;;;;;;;;23.15;52.76;101370.08;2151859;82;51364;-77
2023/09/02 09:00:58;;;;;;;;;;;;;;;23.13;52.82;101364.55;2155461;82;51552;-77
2023/09/02 09:04:00;;;;;;;;;;;;;;;23.13;52.76;101368.08;2155305;81;51040;-76
2023/09/02 09:07:03;;;;;;;;;;;;;;;23.11;52.79;101374.70;2151810;82;51462;-77
2023/09/02 09:10:05;;;;;;;;;;;;;;;23.11;52.78;101369.30;2151163;82;51676;-77
2023/09/02 09:13:07;;;;;;;;;;;;;;;23.09;52.84;101372.70;2151573;82;50291;-76
2023/09/02 09:16:08;;;;;;;;;;;;;;;23.09;52.78;101376.23;2155635;81;52365;-77
2023/09/02 09:19:10;;;;;;;;;;;;;;;23.07;52.83;101370.22;2152286;82;50245;-77
2023/09/02 09:22:12;;;;;;;;;;;;;;;23.07;52.80;101368.87;2151744;82;51534;-77
2023/09/02 09:25:13;;;;;;;;;;;;;;;23.04;52.83;101371.94;2151684;82;51335;-77
2023/09/02 09:28:15;;;;;;;;;;;;;;;23.03;52.93;101378.38;2155238;82;52522;-78
2023/09/02 09:31:17;;;;;;;;;;;;;;;23.03;52.90;101379.73;2151792;82;50315;-77
2023/09/02 09:34:18;;;;;;;;;;;;;;;23.01;52.92;101387.18;2151719;82;50406;-78
2023/09/02 09:37:20;;;;;;;;;;;;;;;22.99;52.96;101382.00;2155541;82;50536;-78
2023/09/02 09:40:23;;;;;;;;;;;;;;;22.98;52.95;101381.66;2155367;81;51202;-77
2023/09/02 09:43:27;;;;;;;;;;;;;;;23.00;52.92;101382.83;2149063;82;50231;-78
2023/09/02 09:46:28;;;;;;;;;;;;;;;22.98;52.93;101383.00;2152223;82;22536;-77
2023/09/02 09:49:30;;;;;;;;;;;;;;;22.98;52.93;101380.83;2152032;82;51385;-78
2023/09/02 09:52:32;;;;;;;;;;;;;;;22.99;52.88;101387.88;2155245;82;49730;-78
2023/09/02 09:55:34;;;;;;;;;;;;;;;22.98;52.88;101382.17;2153795;82;51422;-77
2023/09/02 09:58:36;;;;;;;;;;;;;;;22.98;52.91;101383.53;2151823;82;51474;-78
2023/09/02 10:01:38;;;;;;;;;;;;;;;22.99;52.85;101379.78;2151836;82;50750;-78
2023/09/02 10:04:39;;;;;;;;;;;;;;;23.00;52.79;101389.05;2151636;82;50305;-77
2023/09/02 10:07:41;;;;;;;;;;;;;;;22.98;52.80;101380.30;2151910;82;50408;-79
2023/09/02 10:10:43;;;;;;;;;;;;;;;22.99;52.81;101386.53;2151851;82;50327;-77
2023/09/02 10:13:44;;;;;;;;;;;;;;;22.98;52.78;101383.00;2151765;82;50260;-79
2023/09/02 10:16:46;;;;;;;;;;;;;;;22.98;52.78;101382.17;2156181;82;51651;-80
2023/09/02 10:19:47;;;;;;;;;;;;;;;22.98;52.74;101387.58;2154079;82;50615;-78
2023/09/02 10:22:49;;;;;;;;;;;;;;;22.98;52.71;101384.88;2176441;81;50296;-78
2023/09/02 10:25:55;;;;;;;;;;;;;;;22.98;52.67;101384.88;2154077;82;50622;-79
2023/09/02 10:28:58;;;;;;;;;;;;;;;22.98;52.65;101386.23;2133920;82;50240;-77
2023/09/02 10:32:03;;;;;;;;;;;;;;;23.00;52.62;101382.83;2153731;82;50353;-77
2023/09/02 10:35:14;;;;;;;;;;;;;;;23.00;52.62;101386.88;2154044;82;22720;-78
2023/09/02 10:38:16;;;;;;;;;;;;;;;23.01;52.55;101388.01;2176647;81;50677;-76
2023/09/02 10:41:18;;;;;;;;;;;;;;;23.01;52.48;101387.18;2157328;82;49631;-78
2023/09/02 10:44:19;;;;;;;;;;;;;;;23.01;52.51;101393.93;2176224;81;50160;-78
2023/09/02 10:47:21;;;;;;;;;;;;;;;23.02;52.49;101388.88;2152724;82;50663;-77
2023/09/02 10:50:23;;;;;;;;;;;;;;;23.00;52.51;101399.02;2151676;82;50231;-77
2023/09/02 10:53:43;;;;;;;;;;;;;;;22.96;52.58;101394.47;2155207;82;52068;-79
2023/09/02 10:56:44;;;;;;;;;;;;;;;22.98;52.56;101392.45;2151665;82;50280;-76
2023/09/02 10:59:46;;;;;;;;;;;;;;;22.96;52.56;101394.99;2151770;82;50280;-76
2023/09/02 11:02:48;;;;;;;;;;;;;;;22.94;52.61;101395.20;2151582;82;50398;-79
2023/09/02 11:06:06;;;;;;;;;;;;;;;22.95;52.60;101391.98;2133010;82;51008;-76
2023/09/02 11:09:07;;;;;;;;;;;;;;;22.93;52.63;101392.69;2155279;82;51521;-79
2023/09/02 11:12:09;;;;;;;;;;;;;;;22.91;52.67;101399.61;2151659;82;50350;-77
2023/09/02 11:15:12;;;;;;;;;;;;;;;22.92;52.61;101395.08;2151768;82;51319;-78
2023/09/02 11:18:27;;;;;;;;;;;;;;;22.91;52.63;101402.84;2131735;82;52512;-78
2023/09/02 11:21:46;;;;;;;;;;;;;;;22.91;52.61;101396.92;2155550;82;51552;-77
2023/09/02 11:24:47;;;;;;;;;;;;;;;22.89;52.65;101415.68;2151788;81;22376;-77
2023/09/02 11:27:48;;;;;;;;;;;;;;;22.89;52.65;101404.89;2151647;82;50636;-78
2023/09/02 11:31:13;;;;;;;;;;;;;;;22.88;52.65;101414.85;2151891;82;51355;-77
2023/09/02 11:34:13;;;;;;;;;;;;;;;22.87;52.65;101415.06;2152168;82;23012;-78
2023/09/02 11:37:15;;;;;;;;;;;;;;;22.86;52.68;101420.95;2152037;82;51313;-78
2023/09/02 11:40:17;;;;;;;;;;;;;;;22.86;52.72;101421.47;2151952;82;51566;-80
2023/09/02 11:43:19;;;;;;;;;;;;;;;22.85;52.69;101422.51;2155210;81;51193;-78
2023/09/02 11:46:20;;;;;;;;;;;;;;;22.83;52.73;101423.52;2152508;82;50067;-78
2023/09/02 11:49:26;;;;;;;;;;;;;;;22.83;52.73;101423.52;2152051;82;50289;-78
2023/09/02 11:52:28;;;;;;;;;;;;;;;22.83;52.70;101430.27;2154959;81;50310;-77
2023/09/02 11:55:29;;;;;;;;;;;;;;;22.80;52.78;101429.30;2155506;82;51679;-78
2023/09/02 11:58:31;;;;;;;;;;;;;;;22.82;52.74;101429.95;2155392;82;50718;-77
2023/09/02 12:01:32;;;;;;;;;;;;;;;22.80;52.79;101434.70;2155558;82;51437;-79
2023/09/02 12:04:39;;;;;;;;;;;;;;;22.81;52.75;101435.53;2151505;81;51477;-77
2023/09/02 12:07:41;;;;;;;;;;;;;;;22.81;52.74;101439.09;2130622;82;52412;-77
2023/09/02 12:10:43;;;;;;;;;;;;;;;22.81;52.74;101432.34;2155152;81;50564;-78
2023/09/02 12:13:45;;;;;;;;;;;;;;;22.80;52.73;101441.45;2151593;82;50436;-77
2023/09/02 12:16:47;;;;;;;;;;;;;;;22.79;52.72;101437.09;2152474;82;50445;-77
2023/09/02 12:19:48;;;;;;;;;;;;;;;22.80;52.71;101438.75;2155414;82;51168;-77
2023/09/02 12:22:50;;;;;;;;;;;;;;;22.81;52.69;101436.39;2151436;82;50396;-77
2023/09/02 12:26:03;;;;;;;;;;;;;;;22.81;52.67;101435.05;2151841;81;50235;-78
2023/09/02 12:29:06;;;;;;;;;;;;;;;22.81;52.66;101436.39;2151911;81;51562;-76
2023/09/02 12:32:08;;;;;;;;;;;;;;;22.78;52.69;101428.66;2132596;82;52564;-77
2023/09/02 12:35:09;;;;;;;;;;;;;;;22.81;52.66;101427.44;2155416;82;52407;-78
2023/09/02 12:38:11;;;;;;;;;;;;;;;22.81;52.64;101432.83;2155424;82;50626;-76
2023/09/02 12:41:13;;;;;;;;;;;;;;;22.79;52.68;101425.47;2155374;82;51449;-79
2023/09/02 12:44:15;;;;;;;;;;;;;;;22.80;52.66;101426.61;2155135;81;52278;-77
2023/09/02 12:47:18;;;;;;;;;;;;;;;22.79;52.67;101426.81;2152399;82;50299;-77
2023/09/02 12:50:21;;;;;;;;;;;;;;;22.78;52.68;101428.66;2153959;82;50291;-77
2023/09/02 12:53:23;;;;;;;;;;;;;;;22.78;52.66;101422.43;2153891;82;51681;-77
2023/09/02 12:56:24;;;;;;;;;;;;;;;22.77;52.70;101435.09;2153522;82;52381;-77
2023/09/02 12:59:26;;;;;;;;;;;;;;;22.78;52.66;101445.36;2176739;81;51393;-77
2023/09/02 13:02:29;;;;;;;;;;;;;;;22.78;52.65;101448.06;2154775;82;51530;-78
2023/09/02 13:05:30;;;;;;;;;;;;;;;22.76;52.65;101449.63;2157976;82;50736;-78
2023/09/02 13:08:32;;;;;;;;;;;;;;;22.77;52.62;101453.98;2158761;81;51713;-78
2023/09/02 13:11:34;;;;;;;;;;;;;;;22.79;52.56;101450.58;2176453;81;50337;-77
2023/09/02 13:14:35;;;;;;;;;;;;;;;22.80;52.53;101445.50;2176347;81;50425;-79
2023/09/02 13:17:37;;;;;;;;;;;;;;;22.81;52.50;101450.37;2152572;81;51582;-77
2023/09/02 13:20:38;;;;;;;;;;;;;;;22.78;52.50;101444.84;2151778;82;50497;-78
2023/09/02 13:23:40;;;;;;;;;;;;;;;22.81;52.49;101449.02;2151617;82;50694;-78
2023/09/02 13:26:43;;;;;;;;;;;;;;;22.78;52.56;101456.16;2154513;81;50266;-78
2023/09/02 13:29:45;;;;;;;;;;;;;;;22.79;52.53;101447.05;2151862;81;50431;-78
2023/09/02 13:32:46;;;;;;;;;;;;;;;22.79;52.50;101442.48;2151622;82;50242;-77
2023/09/02 13:35:48;;;;;;;;;;;;;;;22.79;52.49;101450.58;2151792;82;50497;-78
2023/09/02 13:38:50;;;;;;;;;;;;;;;22.80;52.44;101446.84;2151716;82;51601;-78
2023/09/02 13:41:52;;;;;;;;;;;;;;;22.81;52.44;101449.02;2152487;82;50239;-78
2023/09/02 13:44:55;;;;;;;;;;;;;;;22.80;52.43;101445.50;2155410;81;52487;-77
2023/09/02 13:47:56;;;;;;;;;;;;;;;22.79;52.44;101447.88;2147694;82;51514;-78
2023/09/02 13:51:00;;;;;;;;;;;;;;;22.79;52.49;101445.70;2153763;82;50623;-78
2023/09/02 13:54:01;;;;;;;;;;;;;;;22.78;52.47;101447.55;2153511;82;51648;-78
2023/09/02 13:57:04;;;;;;;;;;;;;;;22.80;52.44;101446.84;2176790;81;52564;-78
2023/09/02 14:00:07;;;;;;;;;;;;;;;22.81;52.40;101441.79;2176332;81;50137;-78
2023/09/02 14:03:13;;;;;;;;;;;;;;;22.81;52.38;101440.93;2153371;82;50675;-78
2023/09/02 14:06:15;;;;;;;;;;;;;;;22.81;52.40;101450.37;2151816;82;50607;-78
2023/09/02 14:09:22;;;;;;;;;;;;;;;22.78;52.46;101447.55;2157351;82;52621;-77
2023/09/02 14:12:21;;;;;;;;;;;;;;;22.81;52.38;101448.53;2175112;81;22331;-78
2023/09/02 14:15:22;;;;;;;;;;;;;;;22.81;52.40;101433.69;2153559;82;51508;-78
2023/09/02 14:18:24;;;;;;;;;;;;;;;22.80;52.41;101437.41;2171542;81;51467;-78
2023/09/02 14:21:25;;;;;;;;;;;;;;;22.80;52.40;101440.09;2153701;82;51563;-77
2023/09/02 14:24:27;;;;;;;;;;;;;;;22.81;52.37;101439.09;2153431;82;50376;-78
2023/09/02 14:27:28;;;;;;;;;;;;;;;22.80;52.41;101438.75;2153468;81;50227;-77
2023/09/02 14:30:31;;;;;;;;;;;;;;;22.80;52.42;101442.80;2153446;82;50233;-77
2023/09/02 14:33:32;;;;;;;;;;;;;;;22.76;52.49;101440.18;2152730;82;52419;-78
2023/09/02 14:36:34;;;;;;;;;;;;;;;22.78;52.44;101442.66;2176224;80;50095;-78
2023/09/02 14:39:36;;;;;;;;;;;;;;;22.78;52.44;101444.02;2176317;81;50250;-78
2023/09/02 14:42:37;;;;;;;;;;;;;;;22.78;52.42;101448.06;2176320;81;50112;-77
2023/09/02 14:45:39;;;;;;;;;;;;;;;22.78;52.40;101452.94;2157411;82;51600;-78
2023/09/02 14:48:40;;;;;;;;;;;;;;;22.79;52.38;101441.14;2154750;81;51488;-78
2023/09/02 14:51:42;;;;;;;;;;;;;;;22.79;52.40;101445.19;2152461;82;50403;-77
2023/09/02 14:54:45;;;;;;;;;;;;;;;22.80;52.37;101448.19;2152290;82;50654;-77
2023/09/02 14:57:47;;;;;;;;;;;;;;;22.81;52.34;101453.93;2131334;82;51799;-78
2023/09/02 15:00:49;;;;;;;;;;;;;;;22.80;52.35;101452.24;2155668;82;50143;-78
2023/09/02 15:03:51;;;;;;;;;;;;;;;22.80;52.39;101449.55;2152216;81;50657;-78
2023/09/02 15:06:52;;;;;;;;;;;;;;;22.80;52.36;101452.24;2152966;82;50741;-77
2023/09/02 15:09:54;;;;;;;;;;;;;;;22.78;52.39;101456.98;2133772;82;50486;-78
2023/09/02 15:12:56;;;;;;;;;;;;;;;22.78;52.42;101457.51;2155223;82;50665;-77
2023/09/02 15:15:59;;;;;;;;;;;;;;;22.78;52.42;101456.98;2156349;81;51643;-76
2023/09/02 15:19:01;;;;;;;;;;;;;;;22.77;52.45;101458.03;2151705;82;51512;-78
2023/09/02 15:22:03;;;;;;;;;;;;;;;22.77;52.44;101459.89;2155137;82;52434;-78
2023/09/02 15:25:05;;;;;;;;;;;;;;;22.78;52.39;101461.03;2151404;82;51485;-77
2023/09/02 15:28:09;;;;;;;;;;;;;;;22.79;52.38;101459.20;2154915;82;51405;-77
2023/09/02 15:31:12;;;;;;;;;;;;;;;22.78;52.37;101461.03;2151624;82;50681;-77
2023/09/02 15:34:14;;;;;;;;;;;;;;;22.78;52.39;101462.38;2154905;82;51019;-77